Time;durP1;ratioP1;P1;durP2;ratioP2;P2;SDS_P1;SDS_P2;PMS_P1;PMS_P2;Temp;Humidity;BMP_temperature;BMP_pressure;BME280_temperature;BME280_humidity;BME280_pressure;Samples;Min_cycle;Max_cycle;Signal;HPM_P1;HPM_P2
2022/08/23 00:01:57;;;;;;;5.00;4.70;;;15.10;99.90;;;15.96;79.33;97849.75;5221769;28;20320;-65
2022/08/23 00:04:33;;;;;;;5.00;4.68;;;15.10;99.90;;;15.96;79.33;97854.03;5220839;28;20225;-66
2022/08/23 00:07:11;;;;;;;5.20;4.80;;;15.10;99.90;;;15.96;80.17;97848.88;5221888;28;20204;-66
2022/08/23 00:09:45;;;;;;;5.30;4.90;;;15.10;99.90;;;15.92;79.79;97854.75;5221708;28;20201;-66
2022/08/23 00:12:23;;;;;;;4.82;4.45;;;15.00;99.90;;;15.93;79.34;97849.63;5222898;28;20205;-66
2022/08/23 00:14:58;;;;;;;5.13;4.72;;;15.00;99.90;;;15.90;79.62;97849.53;5222032;28;20221;-66
2022/08/23 00:17:31;;;;;;;4.47;4.07;;;15.00;99.90;;;15.85;78.69;97845.94;5222062;28;20212;-66
2022/08/23 00:20:11;;;;;;;4.95;4.22;;;14.90;99.90;;;15.79;78.28;97849.97;5220178;28;20431;-63
2022/08/23 00:22:45;;;;;;;4.18;3.88;;;14.80;99.90;;;15.74;77.83;97847.25;5221531;28;20225;-64
2022/08/23 00:25:19;;;;;;;4.78;4.28;;;14.80;99.90;;;15.61;76.86;97848.44;5221664;28;20201;-64
2022/08/23 00:27:52;;;;;;;4.13;3.83;;;14.70;99.90;;;15.51;77.17;97854.97;5220437;28;20221;-65
2022/08/23 00:30:28;;;;;;;4.95;4.18;;;14.60;99.90;;;15.46;77.60;97855.59;5221916;28;20673;-65
2022/08/23 00:33:01;;;;;;;4.60;4.20;;;14.60;99.90;;;15.43;78.33;97855.50;5219957;28;20209;-65
2022/08/23 00:35:35;;;;;;;4.10;3.72;;;14.60;99.90;;;15.48;78.13;97854.84;5219866;28;20201;-65
2022/08/23 00:38:09;;;;;;;4.43;4.13;;;14.60;99.90;;;15.52;78.14;97845.53;5222012;28;20212;-65
2022/08/23 00:41:03;;;;;;;4.05;3.85;;;14.60;99.90;;;15.52;78.52;97843.81;5221556;28;20209;-64
2022/08/23 00:49:37;;;;;;;4.57;4.18;;;14.60;99.90;;;15.48;79.13;97838.50;5219550;28;20883;-65
2022/08/23 00:52:21;;;;;;;4.30;4.10;;;14.60;99.90;;;15.48;79.35;97844.53;5217539;28;20582;-65
2022/08/23 00:54:56;;;;;;;4.53;4.22;;;14.60;99.90;;;15.45;78.60;97838.38;5219638;28;20316;-65
2022/08/23 00:57:31;;;;;;;4.07;3.88;;;14.60;99.90;;;15.40;78.72;97832.19;5221284;28;20299;-65
2022/08/23 01:00:07;;;;;;;4.45;4.05;;;14.50;99.90;;;15.38;78.24;97837.28;5221269;28;20626;-64
2022/08/23 01:02:45;;;;;;;4.13;3.65;;;14.40;99.90;;;15.21;77.84;97828.91;5221398;28;21986;-65
2022/08/23 01:05:19;;;;;;;4.45;3.97;;;14.20;99.90;;;15.13;78.07;97835.47;5216511;28;20209;-64
2022/08/23 01:07:58;;;;;;;4.43;3.67;;;14.20;99.90;;;15.16;78.37;97833.00;5221474;28;20207;-65
2022/08/23 01:10:41;;;;;;;4.22;3.92;;;14.20;99.90;;;15.13;78.33;97827.72;5220572;28;20209;-65
2022/08/23 01:13:20;;;;;;;4.32;4.00;;;14.20;99.90;;;15.14;78.24;97826.94;5223578;28;20212;-65
2022/08/23 01:15:59;;;;;;;4.32;4.03;;;14.30;99.90;;;15.08;78.51;97822.44;5220353;28;20270;-65
2022/08/23 01:18:35;;;;;;;4.80;4.32;;;14.20;99.90;;;15.10;78.61;97830.19;5221154;28;20338;-65
2022/08/23 01:21:16;;;;;;;4.00;3.80;;;14.20;99.90;;;15.16;79.20;97835.56;5219256;28;20208;-65
2022/08/23 01:23:57;;;;;;;4.72;4.32;;;14.30;99.90;;;15.14;79.10;97839.81;5219171;28;20778;-65
2022/08/23 01:26:33;;;;;;;4.35;4.13;;;14.30;99.90;;;15.06;79.15;97836.06;5219960;28;20749;-64
2022/08/23 01:29:08;;;;;;;4.38;3.67;;;14.20;99.90;;;15.05;78.56;97831.69;5219977;28;20209;-65
2022/08/23 01:31:42;;;;;;;4.57;4.28;;;14.20;99.90;;;15.00;79.18;97833.25;5221238;28;20204;-65
2022/08/23 01:34:17;;;;;;;4.60;4.22;;;14.20;99.90;;;15.00;79.42;97833.25;5218902;28;20320;-64
2022/08/23 01:36:50;;;;;;;4.63;4.25;;;14.20;99.90;;;15.05;79.50;97836.84;5219023;28;20241;-65
2022/08/23 01:39:26;;;;;;;5.10;4.68;;;14.20;99.90;;;15.09;79.32;97838.75;5219988;28;20213;-65
2022/08/23 01:42:00;;;;;;;4.80;4.50;;;14.20;99.90;;;14.97;79.74;97844.28;5219514;28;20208;-65
2022/08/23 01:44:40;;;;;;;5.00;4.60;;;14.20;99.90;;;15.00;80.54;97849.56;5220560;28;20294;-65
2022/08/23 01:47:13;;;;;;;5.22;4.82;;;14.10;99.90;;;14.96;81.21;97842.53;5217931;28;20529;-65
2022/08/23 01:49:47;;;;;;;4.72;4.15;;;14.10;99.90;;;14.99;80.36;97847.78;5220440;28;20251;-65
2022/08/23 01:52:21;;;;;;;4.43;4.13;;;14.10;99.90;;;14.96;80.85;97847.66;5216606;28;20217;-65
2022/08/23 01:54:56;;;;;;;4.47;4.07;;;14.10;99.90;;;14.93;81.44;97844.97;5221617;28;20283;-64
2022/08/23 01:57:30;;;;;;;4.80;4.47;;;14.00;99.90;;;14.97;80.88;97843.41;5221101;28;20204;-65
2022/08/23 02:00:07;;;;;;;5.10;4.72;;;14.00;99.90;;;14.95;80.89;97839.91;5221733;28;20196;-65
2022/08/23 02:02:41;;;;;;;4.15;3.85;;;14.00;99.90;;;14.92;81.30;97840.66;5219496;28;20229;-65
2022/08/23 02:05:16;;;;;;;4.80;4.40;;;14.00;99.90;;;14.98;81.04;97843.47;5216036;28;20202;-65
2022/08/23 02:07:51;;;;;;;4.45;4.05;;;14.00;99.90;;;14.88;81.62;97843.94;5219890;28;20193;-65
2022/08/23 02:10:26;;;;;;;4.50;4.07;;;14.00;99.90;;;14.86;81.39;97846.44;5218184;28;20240;-65
2022/08/23 02:13:00;;;;;;;4.78;4.47;;;14.00;99.90;;;14.77;81.41;97840.06;5219498;28;20232;-65
2022/08/23 02:15:33;;;;;;;5.20;4.80;;;13.90;99.90;;;14.72;81.89;97842.44;5219690;28;20310;-65
2022/08/23 02:18:06;;;;;;;4.78;4.38;;;13.90;99.90;;;14.74;81.73;97845.94;5220526;28;20293;-65
2022/08/23 02:20:45;;;;;;;4.93;4.53;;;13.90;99.90;;;14.72;81.52;97845.00;5214935;28;20220;-64
2022/08/23 02:23:21;;;;;;;4.93;4.43;;;13.80;99.90;;;14.72;81.26;97846.69;5219487;28;20260;-65
2022/08/23 02:25:56;;;;;;;4.38;4.07;;;13.80;99.90;;;14.67;81.64;97849.06;5220391;28;20205;-66
2022/08/23 02:28:29;;;;;;;4.63;4.30;;;13.80;99.90;;;14.68;80.85;97850.84;5219398;28;20232;-66
2022/08/23 02:31:02;;;;;;;4.65;4.32;;;13.80;99.90;;;14.71;80.52;97847.50;5219830;28;20229;-65
2022/08/23 02:33:37;;;;;;;5.07;4.70;;;13.80;99.90;;;14.59;80.20;97850.44;5218849;28;20212;-66
2022/08/23 02:36:28;;;;;;;5.55;5.15;;;13.80;99.90;;;14.63;80.99;97854.94;5218562;28;20783;-66
2022/08/23 02:39:01;;;;;;;5.20;4.90;;;13.70;99.90;;;14.59;81.40;97855.59;5223079;28;20204;-66
2022/08/23 02:41:37;;;;;;;4.93;4.63;;;13.70;99.90;;;14.59;80.73;97853.03;5221238;28;20201;-66
2022/08/23 02:44:11;;;;;;;5.25;4.90;;;13.70;99.90;;;14.61;80.69;97854.84;5218156;28;20220;-65
2022/08/23 02:46:44;;;;;;;5.18;4.78;;;13.70;99.90;;;14.56;80.05;97850.31;5222819;28;20201;-66
2022/08/23 02:49:20;;;;;;;5.35;4.95;;;13.70;99.90;;;14.56;80.16;97852.91;5224200;28;20203;-66
2022/08/23 02:51:53;;;;;;;5.82;5.43;;;13.70;99.90;;;14.49;80.82;97853.44;5223971;28;20196;-65
2022/08/23 02:54:26;;;;;;;5.75;5.35;;;13.70;99.90;;;14.44;81.51;97850.66;5223252;28;20772;-66
2022/08/23 02:57:01;;;;;;;6.93;6.18;;;13.60;99.90;;;14.43;81.76;97856.63;5222836;28;20653;-66
2022/08/23 02:59:34;;;;;;;6.63;6.00;;;13.70;99.90;;;14.47;82.44;97860.22;5223572;28;20665;-66
2022/08/23 03:02:08;;;;;;;6.28;5.78;;;13.70;99.90;;;14.35;82.48;97860.56;5224792;28;20566;-65
2022/08/23 03:04:41;;;;;;;6.57;5.97;;;13.70;99.90;;;14.39;82.64;97863.34;5221885;28;20274;-66
2022/08/23 03:07:15;;;;;;;5.82;5.43;;;13.60;99.90;;;14.39;82.83;97855.63;5222516;28;20197;-66
2022/08/23 03:09:49;;;;;;;5.85;5.28;;;13.60;99.90;;;14.41;82.39;97864.28;5226066;28;20208;-64
2022/08/23 03:12:23;;;;;;;6.20;5.60;;;13.60;99.90;;;14.34;82.37;97858.84;5222737;28;20224;-65
2022/08/23 03:14:56;;;;;;;5.88;5.40;;;13.60;99.90;;;14.35;81.85;97866.59;5224413;28;20216;-66
2022/08/23 03:17:30;;;;;;;6.35;5.78;;;13.60;99.90;;;14.40;81.85;97867.66;5224332;28;20220;-65
2022/08/23 03:20:04;;;;;;;5.55;5.15;;;13.70;99.90;;;14.36;81.85;97863.19;5223987;28;20689;-65
2022/08/23 03:22:38;;;;;;;5.70;5.25;;;13.70;99.90;;;14.42;81.21;97865.16;5222692;28;20654;-65
2022/08/23 03:25:20;;;;;;;5.60;5.20;;;13.70;99.90;;;14.40;81.94;97867.66;5222977;28;20205;-65
2022/08/23 03:27:55;;;;;;;5.80;5.40;;;13.70;99.90;;;14.43;82.16;97860.09;5222214;28;20224;-65
2022/08/23 03:30:28;;;;;;;5.72;5.32;;;13.70;99.90;;;14.50;82.39;97865.47;5223143;28;20665;-65
2022/08/23 03:33:01;;;;;;;5.65;5.15;;;13.80;99.90;;;14.55;81.47;97866.59;5222670;28;20213;-64
2022/08/23 03:35:34;;;;;;;5.10;4.80;;;13.80;99.90;;;14.52;81.40;97862.19;5222846;28;20233;-65
2022/08/23 03:38:08;;;;;;;5.97;5.53;;;13.80;99.90;;;14.49;81.08;97874.03;5223129;28;20206;-65
2022/08/23 03:40:41;;;;;;;5.50;5.10;;;13.70;99.90;;;14.51;81.09;97869.81;5221261;28;20293;-66
2022/08/23 03:43:16;;;;;;;6.20;5.70;;;13.70;99.90;;;14.41;81.87;97877.13;5220311;28;20371;-66
2022/08/23 03:45:49;;;;;;;7.18;5.72;;;13.60;99.90;;;14.40;81.04;97875.38;5223549;28;20224;-65
2022/08/23 03:48:22;;;;;;;6.18;5.78;;;13.60;99.90;;;14.30;81.70;97868.09;5222117;28;20229;-65
2022/08/23 03:50:55;;;;;;;6.20;5.80;;;13.50;99.90;;;14.24;82.25;97872.09;5222865;28;20205;-65
2022/08/23 03:53:29;;;;;;;6.32;5.75;;;13.50;99.90;;;14.23;82.46;97875.50;5220098;28;20879;-63
2022/08/23 03:56:02;;;;;;;6.03;5.57;;;13.40;99.90;;;14.20;82.33;97871.09;5222277;28;20237;-64
2022/08/23 03:58:36;;;;;;;5.38;5.03;;;13.40;99.90;;;14.21;82.38;97872.84;5221074;28;20636;-65
2022/08/23 04:01:09;;;;;;;5.30;4.90;;;13.40;99.90;;;14.19;82.07;97880.50;5221655;28;20220;-65
2022/08/23 04:03:43;;;;;;;5.68;5.28;;;13.40;99.90;;;14.18;82.06;97883.88;5222276;28;21011;-64
2022/08/23 04:06:19;;;;;;;6.05;5.65;;;13.40;99.90;;;14.17;82.68;97876.09;5222851;28;20292;-64
2022/08/23 04:08:54;;;;;;;5.82;5.43;;;13.40;99.90;;;14.19;82.19;97880.50;5221699;28;20261;-65
2022/08/23 04:11:29;;;;;;;6.05;5.55;;;13.40;99.90;;;14.18;82.32;97880.44;5218836;28;20641;-64
2022/08/23 04:14:05;;;;;;;5.90;5.40;;;13.40;99.90;;;14.16;83.02;97885.50;5218180;28;20248;-65
2022/08/23 04:16:39;;;;;;;5.45;5.05;;;13.40;99.90;;;14.19;82.25;97884.75;5223160;28;20246;-65
2022/08/23 04:19:15;;;;;;;6.30;5.63;;;13.40;99.90;;;14.21;82.65;97893.41;5219589;28;20223;-65
2022/08/23 04:21:53;;;;;;;7.32;6.10;;;13.50;99.90;;;14.27;82.06;97898.81;5220890;28;20287;-65
2022/08/23 04:24:27;;;;;;;6.03;5.63;;;13.50;99.90;;;14.28;81.50;97898.03;5221854;28;20263;-64
2022/08/23 04:27:00;;;;;;;5.70;5.28;;;13.40;99.90;;;14.18;81.62;97901.00;5220648;28;20322;-65
2022/08/23 04:29:36;;;;;;;5.97;5.57;;;13.40;99.90;;;14.16;82.24;97902.59;5222325;28;20665;-65
2022/08/23 04:32:11;;;;;;;5.93;5.50;;;13.40;99.90;;;14.18;82.45;97906.13;5218930;28;20584;-65
2022/08/23 04:34:46;;;;;;;5.63;5.28;;;13.40;99.90;;;14.22;82.63;97910.56;5222313;28;21005;-64
2022/08/23 04:37:24;;;;;;;5.93;5.32;;;13.40;99.90;;;14.13;82.19;97911.06;5221778;28;20197;-64
2022/08/23 04:42:48;;;;;;;5.10;4.75;;;13.30;99.90;;;14.14;82.17;97917.97;5220135;28;20594;-64
2022/08/23 04:45:23;;;;;;;6.63;5.97;;;13.30;99.90;;;14.17;82.82;97932.66;5220931;28;20264;-62
2022/08/23 04:47:57;;;;;;;9.00;5.43;;;13.40;99.90;;;14.16;82.91;97921.50;5221760;28;20197;-64
2022/08/23 04:50:30;;;;;;;5.38;5.05;;;13.40;99.90;;;14.25;81.88;97914.97;5221530;28;20288;-63
2022/08/23 04:53:04;;;;;;;6.03;5.53;;;13.40;99.90;;;14.28;82.37;97918.59;5221773;28;20283;-64
2022/08/23 04:55:38;;;;;;;5.72;5.22;;;13.50;99.90;;;14.35;81.83;97923.16;5221640;28;20555;-63
2022/08/23 04:58:11;;;;;;;5.78;5.38;;;13.50;99.90;;;14.42;82.86;97927.78;5220195;28;20255;-64
2022/08/23 05:00:49;;;;;;;5.75;5.10;;;13.60;99.90;;;14.41;82.30;97928.56;5219523;28;20603;-64
2022/08/23 05:03:24;;;;;;;4.93;4.70;;;13.60;99.90;;;14.42;82.23;97934.59;5214843;28;20231;-63
2022/08/23 05:05:58;;;;;;;6.07;5.05;;;13.50;99.90;;;14.42;82.20;97935.50;5212846;28;20221;-64
2022/08/23 05:08:32;;;;;;;5.88;5.40;;;13.50;99.90;;;14.39;81.45;97943.06;5219467;28;20302;-64
2022/08/23 05:11:08;;;;;;;5.50;5.13;;;13.50;99.90;;;14.36;82.43;97950.63;5216338;28;20278;-64
2022/08/23 05:13:41;;;;;;;5.80;5.32;;;13.40;99.90;;;14.34;81.82;97956.53;5220530;28;20771;-64
2022/08/23 05:16:17;;;;;;;6.10;5.68;;;13.40;99.90;;;14.35;82.43;97954.03;5218115;28;20201;-64
2022/08/23 05:18:50;;;;;;;6.10;5.60;;;13.40;99.90;;;14.40;81.60;97961.94;5222716;28;20197;-65
2022/08/23 05:21:25;;;;;;;6.07;5.50;;;13.40;99.90;;;14.51;81.37;97959.84;5219379;28;20263;-66
2022/08/23 05:23:58;;;;;;;5.72;5.20;;;13.50;99.90;;;14.54;81.95;97957.44;5223332;28;20251;-65
2022/08/23 05:26:31;;;;;;;5.63;5.13;;;13.50;99.90;;;14.76;81.14;97956.63;5223023;28;20233;-65
2022/08/23 05:29:04;;;;;;;5.18;4.78;;;13.70;99.90;;;15.00;79.93;97952.53;5223053;28;20653;-64
2022/08/23 05:31:39;;;;;;;6.57;5.28;;;13.90;99.90;;;15.44;78.26;97961.16;5223232;28;20208;-65
2022/08/23 05:34:12;;;;;;;5.28;4.95;;;14.20;99.90;;;15.97;75.93;97961.50;5219339;28;20321;-65
2022/08/23 05:36:45;;;;;;;5.53;4.72;;;14.50;99.90;;;16.42;73.81;97961.41;5220197;28;20243;-65
2022/08/23 05:39:28;;;;;;;5.95;5.38;;;14.90;99.90;;;16.86;71.28;97952.69;5223166;28;20216;-65
2022/08/23 05:42:12;;;;;;;5.38;4.88;;;15.20;99.90;;;17.18;70.21;97964.91;5219614;28;20205;-66
2022/08/23 05:44:45;;;;;;;4.95;4.50;;;15.50;99.90;;;17.62;68.29;97962.84;5216975;28;20224;-63
2022/08/23 05:47:20;;;;;;;4.50;4.18;;;16.10;99.90;;;18.01;67.51;97965.81;5215449;28;20296;-63
2022/08/23 05:49:56;;;;;;;4.60;4.20;;;16.60;99.90;;;18.51;65.05;97961.16;5217365;28;20287;-63
2022/08/23 05:52:30;;;;;;;4.68;4.30;;;17.10;99.90;;;18.68;63.77;97964.22;5219919;28;20229;-63
2022/08/23 05:55:03;;;;;;;4.68;4.28;;;17.30;99.90;;;19.23;62.72;97968.28;5218801;28;20696;-63
2022/08/23 05:57:37;;;;;;;4.78;4.38;;;17.60;99.90;;;19.34;61.45;97959.06;5217360;28;20296;-63
2022/08/23 06:00:13;;;;;;;4.45;4.15;;;17.80;99.90;;;19.60;60.78;97963.94;5219945;28;20251;-63
2022/08/23 06:02:49;;;;;;;4.97;4.53;;;17.90;99.90;;;19.76;59.76;97968.69;5220205;28;20228;-63
2022/08/23 06:05:22;;;;;;;4.75;4.25;;;17.90;99.90;;;20.13;58.72;97972.09;5221744;28;20707;-64
2022/08/23 06:07:56;;;;;;;4.40;4.10;;;18.10;99.90;;;20.54;57.66;97972.06;5226628;28;20291;-63
2022/08/23 06:10:31;;;;;;;5.00;4.50;;;18.30;99.90;;;20.86;56.91;97969.19;5222490;28;20210;-64
2022/08/23 06:13:04;;;;;;;4.57;4.18;;;18.80;99.90;;;21.33;55.47;97974.34;5223281;28;20692;-62
2022/08/23 06:15:43;;;;;;;3.85;3.47;;;19.40;99.90;;;21.44;54.80;97970.25;5225390;28;20241;-62
2022/08/23 06:18:18;;;;;;;5.57;4.40;;;19.30;99.90;;;21.60;54.33;97976.53;5224703;28;20252;-62
2022/08/23 06:21:01;;;;;;;4.38;3.97;;;19.20;99.90;;;21.74;53.00;97966.34;5226383;28;20201;-63
2022/08/23 06:23:34;;;;;;;4.35;3.95;;;19.40;99.60;;;21.88;52.75;97970.00;5222333;28;20644;-64
2022/08/23 06:26:11;;;;;;;4.63;4.10;;;19.30;99.80;;;22.24;52.15;97968.81;5225140;28;20267;-62
2022/08/23 06:28:47;;;;;;;4.97;4.00;;;19.60;99.80;;;22.39;52.17;97971.59;5226391;28;20257;-63
2022/08/23 06:34:22;;;;;;;4.70;4.30;;;20.40;98.20;;;23.01;49.62;97970.56;5225441;28;20312;-66
2022/08/23 06:36:57;;;;;;;4.30;3.90;;;20.60;97.50;;;23.35;49.15;97963.00;5225648;28;20224;-67
2022/08/23 06:39:32;;;;;;;4.65;3.78;;;20.80;96.90;;;23.66;48.30;97969.31;5223602;28;20311;-67
2022/08/23 06:42:12;;;;;;;4.00;3.70;;;21.20;96.10;;;24.21;46.43;97963.59;5219438;28;20841;-67
2022/08/23 06:45:06;;;;;;;4.15;3.83;;;21.80;94.60;;;24.42;46.35;97966.28;5224100;28;20228;-65
2022/08/23 06:47:40;;;;;;;5.75;4.10;;;22.10;94.40;;;24.55;45.71;97972.44;5224142;28;20320;-65
2022/08/23 06:50:14;;;;;;;4.53;3.72;;;22.30;93.50;;;24.31;45.94;97975.81;5224995;28;20291;-66
2022/08/23 06:52:48;;;;;;;4.20;3.78;;;22.10;93.50;;;24.50;45.32;97976.81;5223215;28;20320;-66
2022/08/23 06:55:22;;;;;;;4.32;3.92;;;22.10;93.10;;;24.79;45.14;97976.03;5224257;28;20226;-66
2022/08/23 06:57:55;;;;;;;4.00;3.40;;;22.60;92.70;;;25.07;44.57;97980.44;5223968;28;20721;-65
2022/08/23 07:00:28;;;;;;;3.60;3.25;;;22.80;92.10;;;25.18;44.27;97985.69;5223810;28;20248;-66
2022/08/23 07:03:01;;;;;;;3.70;3.40;;;22.70;91.90;;;24.95;45.06;97980.41;5224643;28;20240;-67
2022/08/23 07:05:36;;;;;;;3.95;3.50;;;22.90;91.90;;;25.01;44.29;97979.53;5225023;28;20225;-66
2022/08/23 07:08:09;;;;;;;3.50;3.30;;;22.80;91.50;;;25.34;43.66;97986.59;5223794;28;20201;-67
2022/08/23 07:10:42;;;;;;;4.57;3.45;;;23.10;91.00;;;25.46;43.12;97978.72;5224176;28;20641;-66
2022/08/23 07:13:16;;;;;;;3.70;3.47;;;23.40;90.40;;;25.61;42.57;97983.97;5224229;28;20753;-67
2022/08/23 07:15:50;;;;;;;3.80;3.50;;;23.50;90.30;;;26.05;41.82;97979.56;5224564;28;20203;-66
2022/08/23 07:18:24;;;;;;;3.60;3.30;;;23.80;89.60;;;26.19;41.41;97976.91;5224594;28;20200;-66
2022/08/23 07:21:01;;;;;;;3.00;2.80;;;23.90;89.10;;;25.87;42.09;97979.59;5222035;28;20236;-65
2022/08/23 07:23:35;;;;;;;3.40;3.10;;;23.60;89.50;;;26.56;40.38;97980.28;5220812;28;20248;-65
2022/08/23 07:26:12;;;;;;;3.60;3.30;;;23.80;88.70;;;27.27;39.27;97983.38;5223569;28;20504;-65
2022/08/23 07:28:45;;;;;;;3.47;3.17;;;24.30;87.90;;;27.34;38.63;97989.44;5224406;28;20255;-66
2022/08/23 07:31:25;;;;;;;3.35;3.05;;;24.40;86.10;;;27.38;38.50;97984.16;5224798;28;20250;-66
2022/08/23 07:34:01;;;;;;;4.85;3.10;;;24.50;85.70;;;27.69;37.98;97986.50;5224913;28;20637;-66
2022/08/23 07:36:37;;;;;;;4.28;3.17;;;24.70;85.20;;;28.29;37.76;97980.66;5224068;28;20269;-65
2022/08/23 07:39:11;;;;;;;3.20;3.00;;;25.40;84.70;;;28.64;36.62;97990.78;5224452;28;20740;-67
2022/08/23 07:41:45;;;;;;;5.05;3.30;;;25.60;83.80;;;28.10;37.93;97987.91;5224941;28;20193;-67
2022/08/23 07:44:19;;;;;;;3.08;2.88;;;25.40;83.70;;;27.61;38.84;97988.34;5221356;28;20257;-68
2022/08/23 07:46:59;;;;;;;4.03;2.78;;;25.40;83.70;;;27.48;39.14;97990.22;5225829;28;20220;-68
2022/08/23 07:49:32;;;;;;;4.47;3.30;;;25.30;83.70;;;27.73;39.10;97983.00;5225498;28;20197;-67
2022/08/23 07:52:07;;;;;;;3.00;2.70;;;25.70;83.50;;;27.62;38.58;97993.59;5226385;28;20247;-67
2022/08/23 07:54:40;;;;;;;3.25;3.05;;;25.90;82.10;;;27.88;38.56;97991.66;5226679;28;20266;-67
2022/08/23 07:57:20;;;;;;;3.42;2.83;;;26.10;82.30;;;27.88;39.05;97989.88;5222138;28;20205;-67
2022/08/23 07:59:53;;;;;;;3.28;3.08;;;26.20;82.00;;;28.07;38.61;97990.53;5222707;28;20228;-66
2022/08/23 08:02:26;;;;;;;4.15;2.80;;;26.40;81.50;;;28.27;38.11;97996.47;5224721;28;20224;-66
2022/08/23 08:04:59;;;;;;;2.97;2.67;;;26.80;80.50;;;28.54;37.71;97999.69;5225109;28;20205;-67
2022/08/23 08:07:34;;;;;;;3.25;2.90;;;26.80;79.90;;;28.80;37.47;97995.84;5222986;28;20758;-67
2022/08/23 08:10:10;;;;;;;3.40;3.10;;;27.30;78.00;;;28.80;36.02;97995.84;5224577;28;20208;-66
2022/08/23 08:12:43;;;;;;;2.75;2.55;;;27.40;75.60;;;28.66;36.19;98004.78;5224365;28;20324;-66
2022/08/23 08:15:17;;;;;;;3.75;2.83;;;27.30;75.60;;;28.70;36.27;98002.97;5224332;28;20224;-66
2022/08/23 08:17:51;;;;;;;3.05;2.75;;;27.40;75.50;;;28.92;35.84;98000.94;5222398;28;20244;-66
2022/08/23 08:20:27;;;;;;;2.80;2.60;;;27.70;74.40;;;28.79;35.94;98004.59;5224818;28;20660;-65
2022/08/23 08:23:02;;;;;;;4.03;2.83;;;27.70;74.10;;;29.19;34.36;98010.25;5224693;28;20317;-66
2022/08/23 08:25:35;;;;;;;2.70;2.28;;;28.00;70.70;;;29.22;32.92;97999.66;5223825;28;20653;-67
2022/08/23 08:28:09;;;;;;;2.88;2.58;;;28.10;68.60;;;29.43;32.48;98006.34;5224957;28;20201;-66
2022/08/23 08:30:47;;;;;;;2.70;2.50;;;28.30;68.50;;;29.52;32.63;98008.81;5224985;28;20291;-66
2022/08/23 08:33:20;;;;;;;3.67;2.35;;;28.50;69.10;;;29.10;34.49;98007.72;5224869;28;20639;-66
2022/08/23 08:35:56;;;;;;;2.50;2.25;;;28.30;70.50;;;29.10;33.23;98003.34;5223989;28;20199;-67
2022/08/23 08:38:38;;;;;;;2.88;2.50;;;28.00;69.70;;;29.30;33.33;98010.94;5224021;28;20200;-66
2022/08/23 08:41:42;;;;;;;3.25;2.50;;;28.30;69.00;;;29.12;33.58;98009.44;5223283;28;20240;-66
2022/08/23 08:44:34;;;;;;;2.95;2.70;;;28.30;68.70;;;29.46;33.65;98005.44;5222105;28;20216;-66
2022/08/23 08:47:14;;;;;;;3.55;2.47;;;28.60;69.20;;;29.67;33.67;98004.22;5224715;28;20281;-66
2022/08/23 08:49:55;;;;;;;2.25;2.05;;;28.90;69.10;;;29.82;33.47;98004.84;5224654;28;20196;-66
2022/08/23 08:52:33;;;;;;;2.60;2.40;;;29.00;68.90;;;30.11;32.86;98003.44;5224095;28;20279;-67
2022/08/23 08:55:13;;;;;;;2.42;2.22;;;29.40;67.80;;;30.42;31.72;98006.38;5222660;28;20685;-67
2022/08/23 08:57:49;;;;;;;3.55;2.47;;;29.70;65.50;;;30.61;31.11;98006.00;5223101;28;20228;-67
2022/08/23 09:00:25;;;;;;;2.65;2.20;;;29.80;64.90;;;30.58;29.59;98006.06;5224632;28;20192;-67
2022/08/23 09:03:01;;;;;;;2.22;2.03;;;29.70;62.10;;;30.66;29.37;98012.03;5224127;28;20302;-67
2022/08/23 09:05:39;;;;;;;2.50;2.30;;;29.70;61.80;;;30.65;29.77;98005.03;5224117;28;20287;-67
2022/08/23 09:08:32;;;;;;;4.60;2.20;;;29.70;62.00;;;30.44;29.43;98001.06;5215243;28;20764;-67
2022/08/23 09:11:16;;;;;;;2.60;2.40;;;29.60;61.10;;;30.71;28.62;98004.91;5222771;28;20200;-66
2022/08/23 09:14:19;;;;;;;2.38;2.17;;;29.80;59.30;;;30.64;27.83;98006.78;5224142;28;20256;-67
2022/08/23 09:16:54;;;;;;;2.65;2.00;;;29.70;58.80;;;30.70;28.17;98006.66;5223537;28;20227;-67
2022/08/23 09:19:28;;;;;;;2.33;2.00;;;29.70;59.10;;;30.68;27.96;98002.34;5223365;28;20228;-67
2022/08/23 09:22:05;;;;;;;2.40;2.17;;;29.60;58.70;;;30.67;28.14;98011.13;5222866;28;20259;-66
2022/08/23 09:24:39;;;;;;;2.60;2.17;;;29.90;59.10;;;30.66;28.43;98004.13;5223164;28;20248;-65
2022/08/23 09:27:13;;;;;;;2.60;2.40;;;29.90;59.10;;;30.23;28.97;98008.50;5224165;28;20263;-65
2022/08/23 09:29:56;;;;;;;2.70;2.00;;;29.30;59.70;;;30.40;29.06;98010.81;5225505;28;20195;-65
2022/08/23 09:32:33;;;;;;;2.42;2.20;;;29.60;60.00;;;30.64;28.43;98003.28;5222924;28;20736;-65
2022/08/23 09:35:12;;;;;;;3.53;2.58;;;29.90;59.30;;;30.57;29.21;98001.69;5221727;28;20283;-66
2022/08/23 09:37:58;;;;;;;3.35;2.15;;;29.80;59.50;;;30.76;27.99;98008.28;5219823;28;20684;-66
2022/08/23 09:40:37;;;;;;;3.03;2.13;;;30.00;58.50;;;30.83;28.33;97995.88;5221399;28;20201;-66
2022/08/23 09:43:18;;;;;;;2.45;2.22;;;30.10;58.60;;;30.93;27.82;98000.03;5211975;28;20224;-66
2022/08/23 09:45:59;;;;;;;3.28;2.53;;;30.20;57.70;;;30.98;27.54;98004.31;5209152;28;20333;-66
2022/08/23 09:48:39;;;;;;;3.20;2.42;;;30.10;57.50;;;30.99;27.14;98002.53;5218771;28;20239;-66
2022/08/23 09:51:23;;;;;;;2.85;2.42;;;30.10;57.20;;;30.78;27.94;98003.00;5224575;28;20540;-66
2022/08/23 09:54:07;;;;;;;3.13;2.67;;;30.00;58.00;;;30.67;28.21;98003.22;5225516;28;20224;-66
2022/08/23 09:56:44;;;;;;;3.05;2.22;;;30.00;58.20;;;30.61;28.07;97998.94;5225005;28;20694;-66
2022/08/23 09:59:33;;;;;;;2.60;2.40;;;29.80;58.00;;;30.59;28.52;97995.47;5221368;28;20236;-66
2022/08/23 10:02:17;;;;;;;2.97;2.38;;;29.80;58.50;;;30.55;28.83;97988.50;5220074;28;20289;-66
2022/08/23 10:05:05;;;;;;;4.43;2.70;;;29.90;58.90;;;30.77;28.92;97985.44;5220201;28;20221;-66
2022/08/23 10:08:06;;;;;;;2.95;2.60;;;30.10;58.70;;;30.79;28.77;97984.53;5224915;28;20684;-66
2022/08/23 10:10:57;;;;;;;4.60;2.53;;;30.20;58.30;;;30.62;28.61;97989.25;5220705;28;20212;-65
2022/08/23 10:13:40;;;;;;;2.65;2.45;;;29.90;58.30;;;30.51;29.50;97989.50;5223324;28;20229;-67
2022/08/23 10:16:31;;;;;;;2.75;2.55;;;29.70;59.30;;;30.69;28.86;97988.22;5218799;28;20231;-66
2022/08/23 10:19:16;;;;;;;2.40;2.20;;;29.80;59.20;;;30.61;29.27;97987.50;5224422;28;20201;-66
2022/08/23 10:21:58;;;;;;;2.80;2.33;;;29.80;59.70;;;30.66;29.59;97991.78;5227041;28;20224;-65
2022/08/23 10:24:43;;;;;;;2.60;2.40;;;29.90;59.30;;;30.72;29.11;97990.78;5227796;28;20256;-66
2022/08/23 10:30:37;;;;;;;3.20;2.30;;;29.90;58.80;;;30.46;28.95;97986.06;5223423;28;20651;-66
2022/08/23 10:33:20;;;;;;;2.58;2.38;;;29.80;58.80;;;30.53;29.15;97985.94;5224581;28;20240;-66
2022/08/23 10:36:03;;;;;;;3.00;2.50;;;29.70;59.10;;;30.26;30.11;97986.47;5230018;28;20643;-66
2022/08/23 10:38:43;;;;;;;2.60;2.40;;;29.60;59.40;;;30.17;29.88;97981.34;5227115;28;20228;-66
2022/08/23 10:41:44;;;;;;;3.45;2.70;;;29.50;59.60;;;30.04;29.85;97981.56;5224097;28;20237;-66
2022/08/23 10:44:29;;;;;;;2.67;2.47;;;29.40;59.70;;;30.06;30.43;97971.00;5231401;28;20221;-66
2022/08/23 10:47:19;;;;;;;3.30;3.00;;;29.30;60.20;;;29.72;30.55;97978.66;5226761;28;20256;-66
2022/08/23 10:49:55;;;;;;;3.20;2.65;;;29.00;60.00;;;29.69;30.41;97973.44;5225047;28;20633;-66
2022/08/23 10:52:34;;;;;;;2.83;2.58;;;28.80;60.50;;;29.79;31.30;97967.09;5227249;28;20228;-66
2022/08/23 10:55:33;;;;;;;3.78;2.83;;;29.00;62.20;;;30.03;31.48;97969.28;5226652;28;20235;-66
2022/08/23 10:58:13;;;;;;;2.85;2.65;;;29.30;61.90;;;30.20;30.10;97960.19;5225409;28;20232;-66
2022/08/23 11:00:46;;;;;;;2.72;2.53;;;29.50;60.00;;;30.23;30.69;97962.81;5224138;28;20262;-66
2022/08/23 11:03:27;;;;;;;3.15;2.15;;;29.60;60.10;;;30.36;29.65;97961.66;5226755;28;20305;-66
2022/08/23 11:06:28;;;;;;;2.75;2.42;;;29.70;58.80;;;30.25;29.55;97950.47;5227194;28;20227;-66
2022/08/23 11:09:05;;;;;;;2.90;2.63;;;29.50;59.30;;;30.14;30.22;97955.91;5224926;28;20323;-65
2022/08/23 11:11:45;;;;;;;2.65;2.40;;;29.50;59.40;;;30.17;30.21;97954.97;5223992;28;20266;-66
2022/08/23 11:14:33;;;;;;;2.78;2.47;;;29.60;59.50;;;30.03;29.75;97949.97;5217901;28;20271;-68
2022/08/23 11:17:10;;;;;;;2.90;2.60;;;29.40;59.00;;;29.88;30.87;97953.78;5226157;28;20193;-65